Time;durP1;ratioP1;P1;durP2;ratioP2;P2;SDS_P1;SDS_P2;PMS_P1;PMS_P2;Temp;Humidity;BMP_temperature;BMP_pressure;BME280_temperature;BME280_humidity;BME280_pressure;Samples;Min_cycle;Max_cycle;Signal;HPM_P1;HPM_P2
2022/11/15 00:04:52;;;;;;;9.35;6.00;;;;;;;2.97;90.91;101035.78;10553528;28;20035;-71
2022/11/15 00:09:52;;;;;;;9.60;5.00;;;;;;;2.83;91.15;101005.19;10584975;28;20046;-71
2022/11/15 00:14:53;;;;;;;9.50;5.40;;;;;;;2.84;90.82;100998.16;10585187;28;20126;-71
2022/11/15 00:19:54;;;;;;;7.45;4.68;;;;;;;2.99;91.07;101023.38;10568877;28;20040;-71
2022/11/15 00:24:55;;;;;;;8.48;4.88;;;;;;;1.58;91.16;100810.63;10542258;28;20044;-71
2022/11/15 00:29:55;;;;;;;10.18;5.07;;;;;;;2.68;91.61;101014.91;10542843;28;20048;-71
2022/11/15 00:34:56;;;;;;;9.40;4.90;;;;;;;2.64;91.66;101023.94;10542037;28;20101;-71
2022/11/15 00:39:57;;;;;;;9.38;4.97;;;;;;;2.63;91.50;101024.03;10541772;28;20094;-71
2022/11/15 00:44:58;;;;;;;6.72;4.20;;;;;;;1.99;91.71;100927.63;10541871;28;20042;-71
2022/11/15 00:49:59;;;;;;;9.38;4.95;;;;;;;2.07;91.79;100956.00;10541269;28;20070;-72
2022/11/15 00:54:59;;;;;;;8.15;5.03;;;;;;;2.28;92.01;100988.69;10542017;28;20134;-71
2022/11/15 01:00:00;;;;;;;7.45;4.40;;;;;;;2.52;92.07;101027.38;10540771;28;20058;-71
2022/11/15 01:05:01;;;;;;;8.10;4.57;;;;;;;2.28;92.02;101000.94;10541074;28;20070;-71
2022/11/15 01:10:03;;;;;;;7.43;4.10;;;;;;;1.95;91.70;100951.53;10522047;28;20044;-71
2022/11/15 01:15:05;;;;;;;10.85;4.57;;;;;;;2.33;92.12;101029.47;10541336;28;20032;-71
2022/11/15 01:20:06;;;;;;;7.93;4.72;;;;;;;2.39;92.13;101037.78;10540459;28;20108;-71
2022/11/15 01:25:07;;;;;;;7.35;4.40;;;;;;;2.38;92.28;101040.53;10540878;28;20380;-71
2022/11/15 01:30:08;;;;;;;7.47;4.15;;;;;;;2.34;92.15;101060.84;10521935;28;20047;-71
2022/11/15 01:35:09;;;;;;;8.00;4.70;;;;;;;2.24;92.02;101044.88;10539596;28;20484;-71
2022/11/15 01:40:10;;;;;;;9.48;4.55;;;;;;;2.23;92.44;101058.91;10539699;28;20134;-71
2022/11/15 01:45:14;;;;;;;6.88;4.38;;;;;;;2.13;92.73;101055.19;10538988;28;20496;-71
2022/11/15 01:50:21;;;;;;;13.85;4.35;;;;;;;2.10;92.80;101054.53;10538715;28;20044;-71
2022/11/15 01:55:25;;;;;;;7.75;4.32;;;;;;;1.94;92.87;101034.50;10538663;28;20473;-71
2022/11/15 02:00:27;;;;;;;8.43;4.70;;;;;;;1.98;92.54;101028.16;10539375;28;20036;-71
2022/11/15 02:05:30;;;;;;;6.00;4.10;;;;;;;2.20;92.84;101055.63;10520682;28;20066;-71
2022/11/15 02:10:30;;;;;;;13.95;4.88;;;;;;;2.25;92.79;101059.66;10538353;28;20084;-71
2022/11/15 02:15:40;;;;;;;7.38;4.78;;;;;;;1.62;93.37;100944.03;10537634;28;20193;-71
2022/11/15 02:21:02;;;;;;;10.50;4.95;;;;;;;2.38;93.98;101049.22;10538754;28;20087;-71
2022/11/15 02:26:34;;;;;;;9.93;4.68;;;;;;;2.37;93.89;101055.41;10520148;28;20124;-71
2022/11/15 02:31:41;;;;;;;8.27;5.25;;;;;;;2.03;93.21;101018.25;10537727;28;20122;-72
2022/11/15 02:37:01;;;;;;;14.98;4.70;;;;;;;2.31;93.01;101060.22;10537669;28;20070;-73
2022/11/15 02:47:43;;;;;;;10.65;4.50;;;;;;;2.08;92.34;101035.44;10515372;28;20052;-72
2022/11/15 02:52:51;;;;;;;25.63;5.15;;;;;;;2.37;92.57;101075.56;10536855;28;20048;-73
2022/11/15 02:57:57;;;;;;;15.75;5.28;;;;;;;1.95;92.11;101006.56;10547847;28;20035;-73
2022/11/15 03:03:01;;;;;;;8.68;4.93;;;;;;;2.25;92.72;101058.81;10574552;28;20078;-73
2022/11/15 03:08:10;;;;;;;7.43;4.73;;;;;;;2.31;92.57;101075.94;10559753;28;20400;-73
2022/11/15 03:13:35;;;;;;;13.02;6.00;;;;;;;1.69;93.31;100969.72;10566862;28;20854;-73
2022/11/15 03:18:42;;;;;;;10.27;5.10;;;;;;;2.40;93.41;101084.06;10553600;28;20067;-73
2022/11/15 03:23:47;;;;;;;11.77;5.13;;;;;;;2.46;93.11;101080.22;10574546;28;20067;-73
2022/11/15 03:28:54;;;;;;;7.20;4.50;;;;;;;2.54;93.66;101087.56;10581229;28;20054;-73
2022/11/15 03:33:58;;;;;;;18.45;4.90;;;;;;;2.15;93.30;101016.59;10563588;27;20051;-71
2022/11/15 03:39:07;;;;;;;9.93;4.70;;;;;;;2.55;93.24;101082.25;10578328;27;20134;-72
2022/11/15 03:44:27;;;;;;;8.27;5.00;;;;;;;2.04;93.66;100995.50;10546929;28;20044;-71
2022/11/15 03:49:33;;;;;;;7.75;5.40;;;;;;;2.13;93.06;101008.00;10562733;28;20478;-72
2022/11/15 03:54:34;;;;;;;9.73;4.97;;;;;;;1.79;92.48;100949.84;10581848;28;20523;-72
2022/11/15 03:59:35;;;;;;;7.75;5.00;;;;;;;2.69;92.89;101097.94;10578112;28;20124;-69
2022/11/15 04:04:36;;;;;;;7.35;5.07;;;;;;;2.64;92.70;101084.28;10535982;28;20036;-71
2022/11/15 04:10:01;;;;;;;12.68;5.18;;;;;;;2.57;92.71;101082.13;10575878;27;20035;-73
2022/11/15 04:15:15;;;;;;;15.05;4.53;;;;;;;2.47;92.90;101055.66;10543030;27;20505;-71
2022/11/15 04:25:38;;;;;;;14.98;6.25;;;;;;;2.82;92.56;101113.72;10542235;28;20032;-70
2022/11/15 04:30:39;;;;;;;24.33;5.47;;;;;;;2.90;92.49;101134.22;10542531;28;20044;-71
2022/11/15 04:41:36;;;;;;;11.45;5.70;;;;;;;3.05;92.12;101149.00;10541995;27;20101;-72
2022/11/15 04:46:55;;;;;;;13.80;5.97;;;;;;;3.09;91.72;101139.97;10583863;27;20471;-69
2022/11/15 04:51:56;;;;;;;15.35;6.30;;;;;;;3.10;91.44;101120.63;10568243;27;20087;-71
2022/11/15 04:56:57;;;;;;;12.82;7.07;;;;;;;3.36;91.09;101157.47;10555954;27;20567;-72
2022/11/15 05:01:57;;;;;;;11.38;5.88;;;;;;;3.46;90.86;101157.69;10579489;28;20104;-72
2022/11/15 05:06:58;;;;;;;13.98;6.28;;;;;;;3.11;91.10;101110.97;10580434;28;20040;-72
2022/11/15 05:11:59;;;;;;;10.32;6.68;;;;;;;3.51;91.29;101172.22;10582516;28;20052;-72
2022/11/15 05:17:00;;;;;;;8.70;5.90;;;;;;;3.64;90.77;101166.97;10582621;28;20518;-72
2022/11/15 05:22:01;;;;;;;11.20;6.20;;;;;;;3.67;90.38;101166.78;10581900;28;20046;-72
2022/11/15 05:27:01;;;;;;;10.57;6.65;;;;;;;3.59;90.78;101156.78;10581886;28;20041;-72
2022/11/15 05:32:05;;;;;;;14.25;6.43;;;;;;;3.61;90.04;101139.13;10582292;28;20039;-72
2022/11/15 05:37:06;;;;;;;7.87;5.67;;;;;;;3.47;89.53;101084.06;10582251;28;20040;-72
2022/11/15 05:42:11;;;;;;;9.73;5.65;;;;;;;4.04;89.84;101173.00;10563435;28;20055;-72
2022/11/15 05:47:17;;;;;;;10.45;6.22;;;;;;;4.19;90.43;101180.75;10580439;28;20035;-72
2022/11/15 05:52:22;;;;;;;9.23;5.75;;;;;;;4.06;89.67;101131.66;10581383;28;20411;-72
2022/11/15 05:57:24;;;;;;;20.65;6.47;;;;;;;4.48;89.80;101181.38;10580729;28;20035;-72
2022/11/15 06:02:24;;;;;;;11.02;5.97;;;;;;;3.70;88.93;101034.34;10581220;28;20061;-71
2022/11/15 06:07:25;;;;;;;8.85;5.18;;;;;;;4.14;88.46;101090.84;10580668;28;20545;-71
2022/11/15 06:12:26;;;;;;;7.15;4.80;;;;;;;4.71;87.80;101185.00;10580625;28;20570;-71
2022/11/15 06:17:27;;;;;;;7.40;4.93;;;;;;;4.66;87.45;101152.91;10580323;28;20399;-71
2022/11/15 06:22:27;;;;;;;8.30;4.60;;;;;;;4.84;87.40;101177.91;10579911;28;20488;-71
2022/11/15 06:27:28;;;;;;;10.38;4.88;;;;;;;4.45;87.12;101115.81;10580045;28;20491;-71
2022/11/15 06:32:30;;;;;;;7.80;5.30;;;;;;;4.92;85.75;101182.63;10579840;28;20392;-71
2022/11/15 06:37:31;;;;;;;57.85;29.52;;;;;;;5.00;85.58;101212.72;10580334;28;20483;-72
2022/11/15 06:42:32;;;;;;;7.38;4.53;;;;;;;5.16;84.80;101172.94;10580393;28;20062;-71
2022/11/15 06:47:32;;;;;;;8.52;4.10;;;;;;;5.72;82.47;101188.94;10578968;28;20177;-72
2022/11/15 06:52:33;;;;;;;8.23;3.55;;;;;;;5.93;81.24;101169.84;10561347;28;20122;-72
2022/11/15 06:57:34;;;;;;;5.13;3.00;;;;;;;6.38;79.33;101178.63;10578912;28;20187;-72
2022/11/15 07:02:35;;;;;;;5.05;2.97;;;;;;;6.61;78.91;101179.47;10588227;28;20047;-72
2022/11/15 07:07:36;;;;;;;5.15;2.83;;;;;;;6.73;78.55;101180.28;10588045;28;20035;-71
2022/11/15 07:12:37;;;;;;;18.35;13.18;;;;;;;6.61;77.94;101173.31;10587646;28;20044;-71
2022/11/15 07:17:37;;;;;;;15.35;7.75;;;;;;;6.58;76.74;101147.16;10569429;28;20043;-71
2022/11/15 07:22:39;;;;;;;4.38;2.72;;;;;;;6.21;76.33;101089.41;10587146;28;20031;-72
2022/11/15 07:27:39;;;;;;;7.93;2.58;;;;;;;6.71;75.62;101176.91;10587609;28;20039;-72
2022/11/15 07:32:40;;;;;;;4.07;2.60;;;;;;;6.50;75.28;101150.44;10575088;28;20046;-73
2022/11/15 07:37:41;;;;;;;3.70;2.20;;;;;;;6.72;74.28;101199.72;10586818;28;20521;-71
2022/11/15 07:42:55;;;;;;;3.78;2.03;;;;;;;5.98;74.05;101085.09;10554898;28;20056;-71
2022/11/15 07:47:56;;;;;;;3.88;1.92;;;;;;;6.06;73.84;101107.28;10543602;28;20043;-71
2022/11/15 07:52:59;;;;;;;3.63;2.00;;;;;;;6.77;72.36;101194.91;10544346;28;20040;-71
2022/11/15 07:58:05;;;;;;;3.67;2.30;;;;;;;6.51;72.27;101164.47;10548496;27;20553;-70
2022/11/15 08:03:14;;;;;;;4.80;1.95;;;;;;;6.68;70.98;101187.72;10534305;28;20113;-69
2022/11/15 08:08:14;;;;;;;6.18;2.20;;;;;;;6.74;70.95;101187.25;10543216;28;20551;-68
2022/11/15 08:13:15;;;;;;;5.07;2.47;;;;;;;6.71;70.41;101190.13;10541346;28;20123;-71
2022/11/15 08:18:17;;;;;;;4.25;2.38;;;;;;;6.42;70.62;101128.25;10545135;27;20040;-72
2022/11/15 08:23:18;;;;;;;3.65;2.17;;;;;;;6.29;69.33;101110.75;10561073;28;20043;-68
2022/11/15 08:28:18;;;;;;;4.78;2.38;;;;;;;6.35;68.72;101104.97;10557742;28;20044;-68
2022/11/15 08:33:19;;;;;;;4.85;2.47;;;;;;;6.79;68.56;101176.28;10561440;28;20437;-70
2022/11/15 08:38:20;;;;;;;8.65;3.05;;;;;;;6.27;67.74;101070.44;10562489;28;20060;-70
2022/11/15 08:43:21;;;;;;;5.60;2.72;;;;;;;6.95;67.65;101171.47;10584732;28;20137;-70
2022/11/15 08:48:22;;;;;;;6.32;2.38;;;;;;;6.71;66.75;101129.41;10571910;28;20051;-70
2022/11/15 08:53:23;;;;;;;6.40;2.33;;;;;;;6.46;66.44;101079.53;10541121;28;20135;-70
2022/11/15 08:58:24;;;;;;;3.95;2.40;;;;;;;7.00;65.89;101160.50;10541416;28;20123;-70
2022/11/15 09:03:25;;;;;;;5.75;2.33;;;;;;;6.58;64.73;101099.66;10542133;28;20051;-70
2022/11/15 09:08:30;;;;;;;4.90;2.40;;;;;;;6.88;64.12;101165.00;10540437;28;20048;-70
2022/11/15 09:13:32;;;;;;;4.13;1.95;;;;;;;6.74;64.09;101129.16;10540269;28;20032;-70
2022/11/15 09:18:34;;;;;;;5.63;2.50;;;;;;;6.91;63.93;101153.34;10540285;28;20488;-70
2022/11/15 09:23:35;;;;;;;5.97;2.08;;;;;;;6.87;63.42;101131.63;10539881;28;20079;-70
2022/11/15 09:28:37;;;;;;;4.13;2.00;;;;;;;6.85;62.87;101123.84;10539431;28;20044;-70
2022/11/15 09:33:38;;;;;;;9.20;2.42;;;;;;;6.51;63.22;101074.72;10539987;28;20042;-69
2022/11/15 09:38:39;;;;;;;6.53;3.13;;;;;;;6.58;62.51;101083.81;10540282;28;20138;-70
2022/11/15 09:43:54;;;;;;;5.90;2.42;;;;;;;6.62;60.41;101079.97;10539674;28;20032;-71
2022/11/15 09:48:57;;;;;;;6.35;2.67;;;;;;;6.86;60.84;101070.03;10539333;28;20044;-71
2022/11/15 09:54:01;;;;;;;7.15;2.75;;;;;;;7.61;59.40;101144.88;10521502;28;20035;-71
2022/11/15 09:59:27;;;;;;;5.80;3.07;;;;;;;7.39;59.08;101134.41;10539107;28;20043;-70
2022/11/15 10:04:28;;;;;;;10.70;2.72;;;;;;;6.76;59.71;101115.81;10539845;28;20044;-71
2022/11/15 10:09:42;;;;;;;3.85;2.30;;;;;;;6.67;59.15;101069.88;10537939;28;20172;-71
2022/11/15 10:14:43;;;;;;;8.00;2.57;;;;;;;7.24;59.91;101136.53;10538535;28;20496;-71
2022/11/15 10:19:56;;;;;;;4.65;2.85;;;;;;;7.47;58.44;101137.25;10538288;28;20123;-71
2022/11/15 10:25:09;;;;;;;6.03;2.87;;;;;;;7.34;58.16;101137.47;10538265;28;20546;-71
2022/11/15 10:30:16;;;;;;;6.47;2.90;;;;;;;7.35;58.57;101104.75;10537463;28;20062;-71
2022/11/15 10:35:35;;;;;;;6.35;3.90;;;;;;;7.45;56.88;101105.69;10537818;28;20051;-71
2022/11/15 10:40:37;;;;;;;7.35;3.13;;;;;;;7.61;57.82;101115.78;10538882;28;20062;-71
2022/11/15 10:45:38;;;;;;;6.68;3.13;;;;;;;7.59;57.75;101119.53;10554068;28;20051;-70
2022/11/15 10:50:41;;;;;;;5.57;2.45;;;;;;;7.73;57.57;101130.63;10579462;28;20047;-70
2022/11/15 10:55:47;;;;;;;3.90;2.65;;;;;;;7.77;56.58;101131.19;10539785;28;20101;-70
2022/11/15 11:00:48;;;;;;;3.85;2.65;;;;;;;7.84;57.50;101142.09;10537329;28;20043;-71
2022/11/15 11:06:04;;;;;;;3.88;2.42;;;;;;;7.68;55.91;101114.28;10537524;28;20047;-71
2022/11/15 11:11:06;;;;;;;4.53;2.40;;;;;;;7.87;57.32;101133.91;10536504;28;20044;-71
2022/11/15 11:16:19;;;;;;;5.40;2.40;;;;;;;7.72;56.89;101120.19;10536870;28;20040;-70
2022/11/15 11:21:29;;;;;;;7.47;2.90;;;;;;;8.00;56.27;101142.47;10537706;28;20071;-70
2022/11/15 11:26:38;;;;;;;10.15;2.90;;;;;;;7.76;57.20;101132.16;10536921;28;20136;-71
2022/11/15 11:31:53;;;;;;;4.57;2.67;;;;;;;7.70;56.11;101132.69;10535984;28;20109;-71
2022/11/15 11:37:24;;;;;;;4.85;2.28;;;;;;;7.59;55.51;101125.66;10536070;28;20040;-70
2022/11/15 11:42:46;;;;;;;3.88;2.55;;;;;;;7.62;56.58;101156.28;10537427;28;20084;-71
2022/11/15 11:48:15;;;;;;;9.20;3.08;;;;;;;7.29;56.98;101172.19;10543225;28;20040;-71
2022/11/15 11:53:40;;;;;;;4.30;2.50;;;;;;;7.10;56.79;101150.88;10512327;28;20513;-71
2022/11/15 11:58:44;;;;;;;4.75;2.75;;;;;;;7.09;57.77;101165.91;10543882;28;20048;-70
2022/11/15 12:03:56;;;;;;;6.18;2.50;;;;;;;7.05;56.42;101159.19;10543744;28;20047;-70
2022/11/15 12:09:07;;;;;;;6.90;3.28;;;;;;;6.99;57.83;101154.41;10543559;28;20149;-71
2022/11/15 12:14:21;;;;;;;5.10;2.50;;;;;;;6.52;57.54;101085.16;10525598;28;20044;-71
2022/11/15 12:19:22;;;;;;;6.72;2.40;;;;;;;6.61;57.90;101117.88;10531908;28;20514;-70
2022/11/15 12:24:34;;;;;;;6.82;2.70;;;;;;;6.52;57.26;101118.63;10544633;28;20101;-71
2022/11/15 12:29:49;;;;;;;6.63;3.28;;;;;;;6.59;57.29;101136.50;10542695;28;20048;-70
2022/11/15 12:34:51;;;;;;;6.05;3.42;;;;;;;6.58;58.11;101155.09;10541684;28;20067;-70
2022/11/15 12:40:19;;;;;;;24.40;10.60;;;;;;;6.47;57.22;101141.91;10541510;28;20086;-71
2022/11/15 12:45:30;;;;;;;14.18;7.22;;;;;;;6.37;58.10;101166.41;10541433;28;20051;-70
2022/11/15 12:50:50;;;;;;;18.13;7.07;;;;;;;6.36;58.47;101159.44;10541805;28;20040;-70
2022/11/15 12:56:17;;;;;;;32.95;8.75;;;;;;;6.33;59.16;101162.31;10541423;28;20086;-71
2022/11/15 13:01:33;;;;;;;23.38;8.85;;;;;;;6.26;59.09;101174.31;10528799;28;20445;-71
2022/11/15 13:06:43;;;;;;;63.03;26.30;;;;;;;6.12;60.04;101178.00;10540876;28;20036;-70
2022/11/15 13:11:54;;;;;;;41.17;17.67;;;;;;;5.88;59.81;101156.97;10522039;28;20040;-70
2022/11/15 13:17:02;;;;;;;29.65;9.77;;;;;;;5.39;60.31;101108.00;10522734;28;20502;-70
2022/11/15 13:27:28;;;;;;;17.95;4.63;;;;;;;4.54;60.81;101013.38;10582391;28;20118;-70
2022/11/15 13:32:29;;;;;;;13.70;6.07;;;;;;;5.38;61.07;101171.34;10581429;28;20130;-70
2022/11/15 13:37:32;;;;;;;25.80;7.15;;;;;;;5.22;61.96;101176.91;10583163;28;20134;-70
2022/11/15 13:42:33;;;;;;;23.73;6.10;;;;;;;4.76;62.41;101141.63;10582207;28;20055;-70
2022/11/15 13:47:33;;;;;;;21.08;9.95;;;;;;;4.17;63.08;101080.94;10581946;28;20034;-69
2022/11/15 13:52:40;;;;;;;32.72;16.55;;;;;;;4.60;64.03;101190.19;10581448;28;20134;-70
2022/11/15 13:58:16;;;;;;;26.90;7.63;;;;;;;4.54;65.03;101191.44;10581355;28;20495;-70
2022/11/15 14:03:24;;;;;;;35.78;11.88;;;;;;;3.87;65.67;101124.22;10464455;28;20138;-70
2022/11/15 14:08:25;;;;;;;18.52;9.07;;;;;;;4.19;65.11;101191.28;10579278;28;20043;-70
2022/11/15 14:13:31;;;;;;;30.15;12.43;;;;;;;4.24;66.21;101208.44;10580577;28;20048;-70
2022/11/15 14:18:45;;;;;;;46.67;11.23;;;;;;;3.97;65.39;101190.13;10579736;28;20549;-70
2022/11/15 14:23:46;;;;;;;31.92;11.77;;;;;;;3.61;65.15;101140.91;10580451;28;20079;-70
2022/11/15 14:28:47;;;;;;;44.17;15.57;;;;;;;3.80;65.64;101193.91;10576800;28;20054;-70
2022/11/15 14:33:48;;;;;;;35.10;12.45;;;;;;;3.42;66.36;101160.53;10566096;28;20062;-70
2022/11/15 14:38:49;;;;;;;25.52;9.43;;;;;;;2.91;66.89;101114.94;10574878;28;20439;-70
2022/11/15 14:43:51;;;;;;;28.17;14.55;;;;;;;2.94;67.78;101189.03;10571551;28;20088;-70
2022/11/15 14:48:52;;;;;;;45.17;20.50;;;;;;;2.77;68.02;101177.94;10573765;28;20050;-70
2022/11/15 14:53:55;;;;;;;52.63;21.08;;;;;;;2.66;68.16;101183.84;10540244;28;20062;-70
2022/11/15 14:58:56;;;;;;;56.92;19.25;;;;;;;2.78;69.34;101203.22;10541154;28;20040;-70
2022/11/15 15:03:58;;;;;;;37.00;16.70;;;;;;;2.74;70.01;101213.06;10550705;28;20423;-70
2022/11/15 15:08:59;;;;;;;54.33;22.30;;;;;;;2.06;70.43;101127.25;10552338;28;20071;-70
2022/11/15 15:14:01;;;;;;;124.30;47.28;;;;;;;2.57;70.78;101205.41;10540247;28;20059;-70
2022/11/15 15:19:01;;;;;;;135.57;50.72;;;;;;;2.13;70.35;101135.59;10554632;28;20040;-71
2022/11/15 15:24:02;;;;;;;143.32;53.50;;;;;;;2.58;70.10;101220.22;10548564;28;20040;-70
2022/11/15 15:29:03;;;;;;;97.07;38.90;;;;;;;2.39;69.88;101208.22;10557621;28;20553;-70
2022/11/15 15:34:04;;;;;;;76.82;32.60;;;;;;;2.20;70.06;101213.75;10562766;28;20065;-70
2022/11/15 15:39:05;;;;;;;78.18;31.92;;;;;;;2.09;70.75;101217.97;10539709;28;20071;-70
2022/11/15 15:44:06;;;;;;;64.20;25.83;;;;;;;1.60;71.93;101185.88;10568325;28;20424;-70
2022/11/15 15:49:09;;;;;;;43.42;18.88;;;;;;;1.96;72.77;101220.47;10550266;28;20074;-71
2022/11/15 15:54:10;;;;;;;35.33;17.33;;;;;;;1.37;71.89;101116.50;10577237;28;20044;-71
2022/11/15 15:59:11;;;;;;;33.45;16.50;;;;;;;1.83;71.62;101200.25;10575020;28;20040;-71
2022/11/15 16:04:12;;;;;;;40.05;17.27;;;;;;;1.67;72.05;101230.88;10575834;28;20035;-71
2022/11/15 16:09:15;;;;;;;40.75;14.75;;;;;;;1.45;72.44;101226.03;10573693;28;20035;-70
2022/11/15 16:14:16;;;;;;;43.03;16.52;;;;;;;1.23;72.57;101230.81;10557932;28;20545;-70
2022/11/15 16:19:16;;;;;;;37.55;17.20;;;;;;;0.96;73.18;101217.47;10577339;28;20043;-70
2022/11/15 16:24:18;;;;;;;68.15;25.48;;;;;;;0.84;74.58;101198.94;10566876;28;20090;-70
2022/11/15 16:29:19;;;;;;;61.40;25.70;;;;;;;0.80;74.54;101202.63;10539650;28;20050;-70
2022/11/15 16:34:20;;;;;;;56.10;23.30;;;;;;;0.93;74.32;101236.81;10551919;27;20058;-70
2022/11/15 16:39:22;;;;;;;47.40;24.00;;;;;;;0.70;74.43;101221.53;10582638;28;20051;-71
2022/11/15 16:44:23;;;;;;;60.13;28.60;;;;;;;0.59;75.28;101220.31;10584251;28;20174;-72
2022/11/15 16:49:26;;;;;;;60.88;30.45;;;;;;;0.62;75.47;101225.38;10583832;28;20112;-72
2022/11/15 16:54:27;;;;;;;71.95;36.22;;;;;;;0.08;75.59;101119.44;10564865;28;20521;-72
2022/11/15 16:59:29;;;;;;;67.75;28.10;;;;;;;0.55;75.69;101197.06;10582904;28;20043;-72
2022/11/15 17:04:32;;;;;;;62.67;30.02;;;;;;;0.11;75.84;101140.16;10583965;28;20058;-72
2022/11/15 17:09:33;;;;;;;59.00;28.48;;;;;;;0.36;76.39;101211.13;10582629;28;20040;-72
2022/11/15 17:14:34;;;;;;;50.58;26.80;;;;;;;0.15;76.60;101220.06;10564307;28;20487;-71
2022/11/15 17:19:34;;;;;;;46.20;21.30;;;;;;;-0.57;76.56;101101.03;10583415;28;20031;-72
2022/11/15 17:24:35;;;;;;;44.33;18.15;;;;;;;-0.30;76.65;101174.47;10575256;28;20066;-71
2022/11/15 17:29:36;;;;;;;23.30;11.73;;;;;;;0.04;76.91;101209.34;10541314;28;20063;-73
2022/11/15 17:34:37;;;;;;;20.88;11.63;;;;;;;-0.17;76.53;101127.72;10540424;28;20433;-71
2022/11/15 17:39:38;;;;;;;18.70;10.68;;;;;;;-0.28;76.73;101113.44;10540034;28;20055;-72
2022/11/15 17:44:39;;;;;;;27.38;11.82;;;;;;;-0.29;76.72;101119.59;10522161;28;20054;-72
2022/11/15 17:49:40;;;;;;;29.67;12.02;;;;;;;0.03;76.38;101194.56;10539049;28;20055;-72
2022/11/15 17:54:40;;;;;;;24.60;9.93;;;;;;;-0.11;76.36;101211.81;10538558;28;20031;-73
2022/11/15 17:59:41;;;;;;;23.00;10.05;;;;;;;-0.28;77.41;101183.94;10538810;28;20167;-72
2022/11/15 18:04:42;;;;;;;22.17;9.38;;;;;;;-0.08;76.99;101198.59;10538366;28;20119;-72
2022/11/15 18:09:43;;;;;;;19.52;9.32;;;;;;;-0.10;77.70;101189.97;10539231;28;20085;-71
2022/11/15 18:14:43;;;;;;;22.70;10.07;;;;;;;-0.62;77.41;101097.84;10538608;28;20044;-71
2022/11/15 18:19:44;;;;;;;18.55;8.90;;;;;;;-0.21;77.84;101183.63;10537778;28;20523;-70
2022/11/15 18:24:45;;;;;;;15.50;7.20;;;;;;;-0.30;77.25;101164.91;10557381;28;20398;-71
2022/11/15 18:29:46;;;;;;;14.00;6.15;;;;;;;-0.07;76.45;101187.22;10573873;28;20043;-71
2022/11/15 18:34:47;;;;;;;12.43;5.88;;;;;;;-0.30;76.48;101143.16;10538383;28;20059;-71
2022/11/15 18:39:48;;;;;;;11.70;6.43;;;;;;;-0.17;76.61;101152.06;10537948;28;20518;-72
2022/11/15 18:44:48;;;;;;;11.18;6.50;;;;;;;-0.03;76.22;101174.84;10537629;28;20070;-72
2022/11/15 18:49:49;;;;;;;10.88;5.80;;;;;;;0.11;75.30;101156.69;10538285;28;20090;-73
2022/11/15 18:54:50;;;;;;;11.18;6.18;;;;;;;0.20;75.70;101165.78;10536702;28;20408;-72
2022/11/15 18:59:51;;;;;;;10.05;6.25;;;;;;;0.28;75.38;101154.94;10538036;28;20040;-72
2022/11/15 19:04:51;;;;;;;14.90;7.70;;;;;;;0.26;75.37;101118.44;10544077;28;20044;-72
2022/11/15 19:09:52;;;;;;;12.38;6.82;;;;;;;0.31;75.10;101146.94;10543313;28;20398;-73
2022/11/15 19:14:53;;;;;;;16.45;7.78;;;;;;;0.03;74.81;101085.72;10553586;28;20483;-72
2022/11/15 19:19:54;;;;;;;14.85;7.75;;;;;;;-0.28;75.13;101023.81;10549153;28;20044;-73
2022/11/15 19:24:54;;;;;;;17.30;8.43;;;;;;;0.08;74.92;101099.38;10545020;28;20561;-72
2022/11/15 19:29:55;;;;;;;12.05;7.53;;;;;;;-0.31;75.26;101037.03;10535093;28;20040;-71
2022/11/15 19:34:56;;;;;;;16.80;6.85;;;;;;;0.15;75.26;101085.06;10523005;28;20048;-71
2022/11/15 19:39:57;;;;;;;13.57;7.63;;;;;;;0.11;75.50;101078.28;10564259;28;20059;-72
2022/11/15 19:44:57;;;;;;;12.35;6.78;;;;;;;0.21;75.75;101089.13;10518060;28;20040;-71
2022/11/15 19:49:58;;;;;;;14.23;6.82;;;;;;;0.11;75.25;101077.47;10536327;28;20093;-71
2022/11/15 19:54:59;;;;;;;11.15;6.82;;;;;;;-0.57;75.83;101002.75;10536505;28;20496;-72
2022/11/15 20:00:00;;;;;;;11.60;6.95;;;;;;;-0.12;75.66;101089.13;10536146;28;20043;-72
2022/11/15 20:05:01;;;;;;;11.95;7.28;;;;;;;-0.14;75.96;101081.38;10535587;28;20040;-72
2022/11/15 20:10:02;;;;;;;12.93;7.38;;;;;;;-0.33;76.49;101054.53;10542629;28;20040;-72
2022/11/15 20:15:03;;;;;;;17.58;8.52;;;;;;;-0.24;76.62;101085.41;10554089;28;20042;-72
2022/11/15 20:20:04;;;;;;;13.07;7.97;;;;;;;-0.32;75.86;101064.09;10543246;28;20134;-72
2022/11/15 20:25:05;;;;;;;13.15;7.50;;;;;;;-0.17;76.05;101067.66;10542286;28;20522;-72
2022/11/15 20:30:07;;;;;;;17.67;8.13;;;;;;;-0.12;76.92;101057.78;10542533;28;20048;-72
2022/11/15 20:35:08;;;;;;;21.13;8.00;;;;;;;-0.02;76.53;101057.22;10542606;28;20043;-72
2022/11/15 20:40:10;;;;;;;12.85;6.82;;;;;;;0.03;76.11;101045.69;10525319;28;20534;-72
2022/11/15 20:45:10;;;;;;;11.82;7.25;;;;;;;-0.04;75.98;101043.41;10541354;28;20111;-72
2022/11/15 20:50:11;;;;;;;17.08;7.32;;;;;;;-0.24;75.75;101035.78;10541330;28;20090;-72
2022/11/15 20:55:12;;;;;;;12.27;7.95;;;;;;;-0.28;75.56;101029.88;10522978;28;20043;-72
2022/11/15 21:00:13;;;;;;;15.73;7.18;;;;;;;-0.09;75.88;101060.25;10542389;28;20040;-72
2022/11/15 21:05:14;;;;;;;11.65;6.30;;;;;;;-0.08;76.61;101025.38;10540501;28;20130;-72
2022/11/15 21:15:36;;;;;;;11.75;6.47;;;;;;;-0.02;76.66;101031.09;10572477;28;20051;-72
2022/11/15 21:20:37;;;;;;;11.30;5.85;;;;;;;-0.13;76.01;101012.56;10582114;28;20039;-72
2022/11/15 21:25:38;;;;;;;14.02;6.32;;;;;;;-0.02;75.87;101020.66;10582374;28;20063;-72
2022/11/15 21:30:39;;;;;;;11.52;6.07;;;;;;;-0.48;75.85;100959.63;10581921;28;20487;-72
2022/11/15 21:35:41;;;;;;;11.95;6.50;;;;;;;-0.07;75.82;101012.22;10582064;28;20114;-72
2022/11/15 21:40:42;;;;;;;10.77;5.78;;;;;;;-0.61;76.30;100899.41;10582230;28;20098;-72
2022/11/15 21:45:53;;;;;;;13.27;5.88;;;;;;;0.09;75.76;100998.31;10581414;28;20503;-72
2022/11/15 21:50:59;;;;;;;11.50;6.43;;;;;;;-0.17;76.06;100935.31;10581431;28;20043;-72
2022/11/15 21:56:00;;;;;;;12.35;6.43;;;;;;;-0.38;75.26;100908.63;10581689;28;20050;-72
2022/11/15 22:06:20;;;;;;;10.70;5.40;;;;;;;-0.12;75.49;100984.66;10580505;28;20504;-72
2022/11/15 22:11:21;;;;;;;8.40;5.43;;;;;;;-0.27;75.63;100953.28;10581040;28;20039;-72
2022/11/15 22:16:22;;;;;;;9.27;5.78;;;;;;;-0.21;75.94;100965.13;10580036;28;20059;-72
2022/11/15 22:21:23;;;;;;;10.52;5.47;;;;;;;-0.68;76.07;100889.41;10580811;28;20118;-72
2022/11/15 22:26:23;;;;;;;11.00;5.55;;;;;;;-0.60;75.47;100919.41;10569778;27;20572;-72
2022/11/15 22:31:24;;;;;;;11.68;6.30;;;;;;;-1.49;76.23;100785.91;10537218;28;20044;-72
2022/11/15 22:36:25;;;;;;;9.65;5.80;;;;;;;-1.21;76.41;100833.97;10537232;28;20067;-72
2022/11/15 22:41:26;;;;;;;9.68;5.53;;;;;;;-0.69;77.05;100927.69;10538174;28;20143;-72
2022/11/15 22:46:29;;;;;;;9.18;5.50;;;;;;;-0.74;76.55;100916.69;10538464;28;20059;-72
2022/11/15 22:51:29;;;;;;;9.50;4.90;;;;;;;-0.84;76.77;100903.25;10537146;28;20040;-72
2022/11/15 22:56:30;;;;;;;9.18;4.95;;;;;;;-1.29;76.95;100823.09;10536823;28;20054;-72
2022/11/15 23:01:31;;;;;;;8.98;5.43;;;;;;;-1.70;76.94;100763.56;10537625;28;20028;-71
2022/11/15 23:06:32;;;;;;;8.98;5.30;;;;;;;-0.91;77.38;100883.66;10538080;28;20090;-72
2022/11/15 23:16:52;;;;;;;8.50;5.03;;;;;;;-0.69;76.49;100898.97;10537109;28;20074;-72
2022/11/15 23:27:14;;;;;;;8.00;4.95;;;;;;;-0.76;77.04;100893.25;10536307;28;20064;-72
2022/11/15 23:37:34;;;;;;;9.55;5.03;;;;;;;-0.95;76.75;100861.28;10537219;28;20093;-72
2022/11/15 23:42:35;;;;;;;7.28;4.70;;;;;;;-0.94;76.79;100868.16;10553007;28;20060;-72
2022/11/15 23:47:36;;;;;;;7.07;4.63;;;;;;;-0.96;77.43;100873.47;10544873;28;20048;-72
2022/11/15 23:52:37;;;;;;;9.70;5.25;;;;;;;-2.10;77.74;100687.47;10544229;28;20055;-72
2022/11/15 23:57:37;;;;;;;9.18;4.60;;;;;;;-1.05;77.76;100862.66;10543456;28;20058;-72
